createdAt,value
2022-07-30T00:02:47.402Z,100488.00
2022-07-30T00:12:49.818Z,100467.28
2022-07-30T00:22:52.172Z,100448.69
2022-07-30T00:32:57.357Z,100440.19
2022-07-30T00:42:59.846Z,100446.97
2022-07-30T00:53:02.116Z,100428.16
2022-07-30T01:03:05.157Z,100442.63
2022-07-30T01:13:08.340Z,100434.91
2022-07-30T01:23:18.161Z,100432.72
2022-07-30T01:33:23.352Z,100418.56
2022-07-30T01:43:26.342Z,100409.81
2022-07-30T01:53:32.367Z,100416.47
2022-07-30T02:03:35.728Z,100390.66
2022-07-30T02:13:47.710Z,100390.56
2022-07-30T02:23:52.616Z,100379.72
2022-07-30T02:33:58.885Z,100349.47
2022-07-30T02:44:03.061Z,100338.97
2022-07-30T02:54:07.597Z,100320.84
2022-07-30T03:04:11.424Z,100314.31
2022-07-30T03:14:13.839Z,100299.66
2022-07-30T03:24:18.334Z,100312.19
2022-07-30T03:34:21.580Z,100317.47
2022-07-30T03:44:25.108Z,100322.78
2022-07-30T03:54:28.197Z,100311.44
2022-07-30T04:04:50.619Z,100313.03
2022-07-30T04:14:53.707Z,100306.59
2022-07-30T04:24:58.511Z,100303.06
2022-07-30T04:35:00.879Z,100299.56
2022-07-30T04:45:32.618Z,100287.56
2022-07-30T04:55:41.293Z,100295.63
2022-07-30T05:05:45.934Z,100304.00
2022-07-30T05:15:49.097Z,100318.84
2022-07-30T05:25:54.047Z,100328.34
2022-07-30T05:36:05.450Z,100338.41
2022-07-30T05:46:09.565Z,100324.66
2022-07-30T05:56:12.441Z,100333.88
2022-07-30T06:06:40.778Z,100347.28
2022-07-30T06:16:43.408Z,100354.22
2022-07-30T06:26:48.014Z,100359.06
2022-07-30T06:36:55.471Z,100345.47
2022-07-30T06:46:58.662Z,100328.09
2022-07-30T06:57:03.098Z,100335.31
2022-07-30T07:07:12.437Z,100315.91
2022-07-30T07:17:16.588Z,100303.72
2022-07-30T07:27:42.264Z,100282.44
2022-07-30T07:37:45.426Z,100273.47
2022-07-30T07:47:55.820Z,100272.75
2022-07-30T07:58:25.442Z,100270.56
2022-07-30T08:08:34.269Z,100248.44
2022-07-30T08:18:59.798Z,100241.47
2022-07-30T08:29:17.665Z,100225.31
2022-07-30T08:39:21.549Z,100226.06
2022-07-30T08:49:29.168Z,100216.53
2022-07-30T08:59:59.615Z,100211.41
2022-07-30T09:09:57.356Z,100206.84
2022-07-30T09:20:05.612Z,100191.09
2022-07-30T09:30:12.306Z,100200.91
2022-07-30T09:40:33.862Z,100174.91
2022-07-30T09:51:04.724Z,100166.97
2022-07-30T10:01:11.807Z,100171.22
2022-07-30T10:11:24.739Z,100168.47
2022-07-30T10:21:36.006Z,100153.91
2022-07-30T10:31:57.378Z,100165.47
2022-07-30T10:42:27.515Z,100157.38
2022-07-30T10:52:53.137Z,100131.59
2022-07-30T11:03:40.722Z,100087.34
2022-07-30T11:13:54.243Z,100035.16
2022-07-30T11:23:57.286Z,100007.22
2022-07-30T11:34:32.011Z,100001.59
2022-07-30T11:44:34.457Z,100000.13
2022-07-30T11:54:55.859Z,99994.66
2022-07-30T12:04:58.152Z,99989.34
2022-07-30T12:15:02.094Z,99987.09
2022-07-30T12:25:09.423Z,99993.97
2022-07-30T12:35:14.470Z,99965.16
2022-07-30T12:45:52.103Z,99941.84
2022-07-30T12:56:11.544Z,99943.41
2022-07-30T13:06:18.773Z,99969.34
2022-07-30T13:16:22.087Z,99942.84
2022-07-30T13:26:24.645Z,99993.00
2022-07-30T13:36:27.280Z,100027.66
2022-07-30T13:46:29.625Z,100145.59
2022-07-30T13:56:32.092Z,100290.50
2022-07-30T14:06:38.668Z,100276.25
2022-07-30T14:24:47.381Z,100151.25
2022-07-30T14:34:50.161Z,100099.88
2022-07-30T14:44:56.800Z,100117.94
2022-07-30T14:55:00.285Z,100088.16
2022-07-30T15:05:07.433Z,100095.13
2022-07-30T15:15:10.713Z,100118.16
2022-07-30T15:25:15.714Z,100070.22
2022-07-30T15:35:20.083Z,100089.13
2022-07-30T15:45:27.623Z,100087.41
2022-07-30T15:55:31.486Z,100082.72
2022-07-30T16:05:51.113Z,100087.56
2022-07-30T16:15:54.570Z,100102.13
2022-07-30T16:26:00.647Z,100110.97
2022-07-30T16:36:05.733Z,100116.97
2022-07-30T16:46:23.675Z,100136.03
2022-07-30T16:56:35.830Z,100127.78
2022-07-30T17:07:06.358Z,100128.81
2022-07-30T17:27:39.425Z,100120.06
2022-07-30T17:37:58.493Z,100121.50
2022-07-30T17:48:02.029Z,100125.34
2022-07-30T17:58:05.492Z,100119.63
2022-07-30T18:08:07.993Z,100125.94
2022-07-30T18:18:15.064Z,100125.50
2022-07-30T18:28:17.729Z,100148.50
2022-07-30T18:38:20.179Z,100156.06
2022-07-30T18:48:23.265Z,100173.59
2022-07-30T18:58:28.211Z,100184.81
2022-07-30T19:08:30.691Z,100194.81
2022-07-30T19:18:38.377Z,100207.78
2022-07-30T19:28:43.722Z,100220.84
2022-07-30T19:39:11.069Z,100219.78
2022-07-30T19:49:29.702Z,100206.88
2022-07-30T19:59:55.729Z,100198.69
2022-07-30T20:10:06.970Z,100188.06
2022-07-30T20:20:11.521Z,100187.66
2022-07-30T20:30:16.531Z,100179.09
2022-07-30T20:40:30.887Z,100173.50
2022-07-30T20:50:36.804Z,100173.75
2022-07-30T21:00:49.843Z,100169.16
2022-07-30T21:11:03.883Z,100163.00
2022-07-30T21:21:09.142Z,100162.22
2022-07-30T21:31:17.417Z,100145.19
2022-07-30T21:41:40.058Z,100139.00
2022-07-30T21:51:43.265Z,100119.13
2022-07-30T22:01:47.709Z,100115.50
2022-07-30T22:11:51.067Z,100098.03
2022-07-30T22:21:54.077Z,100082.00
2022-07-30T22:31:57.022Z,100081.00
2022-07-30T22:42:01.592Z,100063.97
2022-07-30T22:52:08.641Z,100053.03
2022-07-30T23:02:12.469Z,100040.50
2022-07-30T23:12:17.383Z,100043.31
2022-07-30T23:22:22.179Z,100053.41
2022-07-30T23:32:25.098Z,100059.72
2022-07-30T23:42:28.069Z,100053.59
2022-07-30T23:52:31.133Z,100045.72
